Portada
METAR-TAF:

METAR-TAF

Aeroports :

Phuket, Tailàndia

latitud: 08-07N, longitud: 098-19E, altitud: 6 m

Observació

L'informe es va fer fa 30 minuts, a les 21:30 UTC
Vent 2 kt amb direcció variable
Temperatura 25°C
Humitat 100%
Pressió 1008 hPa
Visibilitat 10 km o més
Escasses núvols a una alçada de 1800 ft, Cumulonimbus.

METAR: VTSP 192130Z VRB02KT 9999 FEW018CB 25/25 Q1008 NOSIG

Hora: 05:00 (22:00 UTC)

Pronòstic

L'informe es va fer fa 5 hores i 0 minuts, a les 17:00 UTC
Pronòstic vàlid del 19 a les 18 UTC al 20 a les 24 UTC
Vent kt del Nord
Visibilitat 10 km o més
Escasses núvols a una alçada de 2000 ft
Evolucionant progressivament
l' 20 a les 02 UTC al 20 a les 04 UTC
Vent 8 kt del Oest
Evolucionant progressivament
l' 20 a les 12 UTC al 20 a les 14 UTC
Vent kt del Nord

TAF: VTSP 191700Z 1918/2024 00000KT 9999 FEW020 BECMG 2002/2004 26008KT BECMG 2012/2014 00000KT

Observacions i pronòstics meteorològics de més de 4000 aeroports (METAR i TAF).

Les estacions disponibles són els punts grocs i vermells al mapa.

Posi el ratolí al punt desitjat per veure el nom de l'estació.

Feu clic per veure les observacions i els pronòstics meteorològics.

Per canviar el mapa: feu clic els botons verds amb una creu de color negre per apropar; al botó verd amb un guió per allunyar la imatge; o en les fletxes verdes per a mapes adjacents.


METAR-TAF: